sensor_id;sensor_type;location;lat;lon;timestamp;temperature;humidity
11619;DHT22;5865;48.776;9.280;2023-02-21T00:11:03;1.90;99.90
11619;DHT22;5865;48.776;9.280;2023-02-21T00:16:32;1.70;99.90
11619;DHT22;5865;48.776;9.280;2023-02-21T00:19:16;1.70;99.90
11619;DHT22;5865;48.776;9.280;2023-02-21T00:22:02;1.70;99.90
11619;DHT22;5865;48.776;9.280;2023-02-21T00:27:32;1.60;99.90
11619;DHT22;5865;48.776;9.280;2023-02-21T00:30:16;1.60;99.90
11619;DHT22;5865;48.776;9.280;2023-02-21T00:44:11;1.60;99.90
11619;DHT22;5865;48.776;9.280;2023-02-21T00:55:14;1.40;99.90
11619;DHT22;5865;48.776;9.280;2023-02-21T00:57:58;1.40;99.90
11619;DHT22;5865;48.776;9.280;2023-02-21T01:03:28;1.30;99.90
11619;DHT22;5865;48.776;9.280;2023-02-21T01:06:12;1.40;99.90
11619;DHT22;5865;48.776;9.280;2023-02-21T01:08:57;1.40;99.90
11619;DHT22;5865;48.776;9.280;2023-02-21T01:11:44;1.30;99.90
11619;DHT22;5865;48.776;9.280;2023-02-21T01:19:59;1.40;99.90
11619;DHT22;5865;48.776;9.280;2023-02-21T01:22:45;1.40;99.90
11619;DHT22;5865;48.776;9.280;2023-02-21T01:25:29;1.40;99.90
11619;DHT22;5865;48.776;9.280;2023-02-21T01:28:15;1.40;99.90
11619;DHT22;5865;48.776;9.280;2023-02-21T01:31:02;1.50;99.90
11619;DHT22;5865;48.776;9.280;2023-02-21T01:33:46;1.40;99.90
11619;DHT22;5865;48.776;9.280;2023-02-21T01:50:20;1.30;99.90
11619;DHT22;5865;48.776;9.280;2023-02-21T01:53:12;1.20;99.90
11619;DHT22;5865;48.776;9.280;2023-02-21T01:55:58;1.30;99.90
11619;DHT22;5865;48.776;9.280;2023-02-21T01:58:44;1.30;99.90
11619;DHT22;5865;48.776;9.280;2023-02-21T02:09:50;1.30;99.90
11619;DHT22;5865;48.776;9.280;2023-02-21T02:15:44;1.10;99.90
11619;DHT22;5865;48.776;9.280;2023-02-21T02:33:06;1.00;99.90
11619;DHT22;5865;48.776;9.280;2023-02-21T02:35:39;1.00;99.90
11619;DHT22;5865;48.776;9.280;2023-02-21T02:40:46;0.90;99.90
11619;DHT22;5865;48.776;9.280;2023-02-21T02:43:21;1.00;99.90
11619;DHT22;5865;48.776;9.280;2023-02-21T02:45:55;0.90;99.90
11619;DHT22;5865;48.776;9.280;2023-02-21T02:48:27;1.20;99.90
11619;DHT22;5865;48.776;9.280;2023-02-21T02:51:00;1.00;99.90
11619;DHT22;5865;48.776;9.280;2023-02-21T02:53:29;1.00;99.90
11619;DHT22;5865;48.776;9.280;2023-02-21T03:01:54;0.90;99.90
11619;DHT22;5865;48.776;9.280;2023-02-21T03:04:40;0.90;99.90
11619;DHT22;5865;48.776;9.280;2023-02-21T03:07:18;0.80;99.90
11619;DHT22;5865;48.776;9.280;2023-02-21T03:09:55;0.80;99.90
11619;DHT22;5865;48.776;9.280;2023-02-21T03:12:34;0.80;99.90
11619;DHT22;5865;48.776;9.280;2023-02-21T03:15:14;0.90;99.90
11619;DHT22;5865;48.776;9.280;2023-02-21T03:17:47;0.90;99.90
11619;DHT22;5865;48.776;9.280;2023-02-21T03:20:16;0.80;99.90
11619;DHT22;5865;48.776;9.280;2023-02-21T03:22:46;0.70;99.90
11619;DHT22;5865;48.776;9.280;2023-02-21T03:25:16;0.70;99.90
11619;DHT22;5865;48.776;9.280;2023-02-21T03:27:46;0.80;99.90
11619;DHT22;5865;48.776;9.280;2023-02-21T03:32:57;0.70;99.90
11619;DHT22;5865;48.776;9.280;2023-02-21T03:35:27;0.70;99.90
11619;DHT22;5865;48.776;9.280;2023-02-21T03:40:29;0.60;99.90
11619;DHT22;5865;48.776;9.280;2023-02-21T03:50:35;0.50;99.90
11619;DHT22;5865;48.776;9.280;2023-02-21T03:53:08;0.60;99.90
11619;DHT22;5865;48.776;9.280;2023-02-21T03:58:11;0.50;99.90
11619;DHT22;5865;48.776;9.280;2023-02-21T04:00:38;0.60;99.90
11619;DHT22;5865;48.776;9.280;2023-02-21T04:13:12;0.60;99.90
11619;DHT22;5865;48.776;9.280;2023-02-21T04:28:17;0.20;99.90
11619;DHT22;5865;48.776;9.280;2023-02-21T04:38:19;0.40;99.90
11619;DHT22;5865;48.776;9.280;2023-02-21T04:48:10;0.20;99.90
11619;DHT22;5865;48.776;9.280;2023-02-21T04:50:37;0.30;99.90
11619;DHT22;5865;48.776;9.280;2023-02-21T04:55:32;0.80;99.90
11619;DHT22;5865;48.776;9.280;2023-02-21T05:25:06;0.30;99.90
11619;DHT22;5865;48.776;9.280;2023-02-21T05:30:02;0.00;99.90
11619;DHT22;5865;48.776;9.280;2023-02-21T05:39:52;-0.10;99.90
11619;DHT22;5865;48.776;9.280;2023-02-21T05:42:19;-0.20;99.90
11619;DHT22;5865;48.776;9.280;2023-02-21T05:44:47;-0.10;99.90
11619;DHT22;5865;48.776;9.280;2023-02-21T05:52:13;-0.10;99.90
11619;DHT22;5865;48.776;9.280;2023-02-21T05:57:09;-0.50;99.90
11619;DHT22;5865;48.776;9.280;2023-02-21T06:02:04;-0.10;99.90
11619;DHT22;5865;48.776;9.280;2023-02-21T06:04:32;-0.20;99.90
11619;DHT22;5865;48.776;9.280;2023-02-21T06:14:24;-0.30;99.90
11619;DHT22;5865;48.776;9.280;2023-02-21T06:19:18;-0.50;99.90
11619;DHT22;5865;48.776;9.280;2023-02-21T06:21:47;-0.30;99.90
11619;DHT22;5865;48.776;9.280;2023-02-21T06:41:29;-0.10;99.90
11619;DHT22;5865;48.776;9.280;2023-02-21T06:43:57;0.10;99.90
11619;DHT22;5865;48.776;9.280;2023-02-21T06:46:26;0.10;99.90
11619;DHT22;5865;48.776;9.280;2023-02-21T06:53:54;0.30;99.90
11619;DHT22;5865;48.776;9.280;2023-02-21T07:11:24;0.50;99.90
11619;DHT22;5865;48.776;9.280;2023-02-21T07:18:50;0.50;99.90
11619;DHT22;5865;48.776;9.280;2023-02-21T07:28:46;1.10;99.90
11619;DHT22;5865;48.776;9.280;2023-02-21T07:43:33;2.10;99.90
11619;DHT22;5865;48.776;9.280;2023-02-21T08:05:53;3.70;99.90
11619;DHT22;5865;48.776;9.280;2023-02-21T08:58:11;7.10;99.90
11619;DHT22;5865;48.776;9.280;2023-02-21T09:26:03;8.90;99.90
11619;DHT22;5865;48.776;9.280;2023-02-21T09:28:31;9.10;99.90
11619;DHT22;5865;48.776;9.280;2023-02-21T10:19:53;11.90;99.90
11619;DHT22;5865;48.776;9.280;2023-02-21T10:27:21;12.50;99.90
11619;DHT22;5865;48.776;9.280;2023-02-21T10:37:50;13.20;99.90
11619;DHT22;5865;48.776;9.280;2023-02-21T10:40:28;13.50;99.90
11619;DHT22;5865;48.776;9.280;2023-02-21T10:43:05;13.50;99.90
11619;DHT22;5865;48.776;9.280;2023-02-21T12:21:03;16.20;89.00
11619;DHT22;5865;48.776;9.280;2023-02-21T12:23:53;16.20;88.80
11619;DHT22;5865;48.776;9.280;2023-02-21T12:26:42;16.30;90.00
11619;DHT22;5865;48.776;9.280;2023-02-21T12:29:23;16.30;88.80
11619;DHT22;5865;48.776;9.280;2023-02-21T12:32:12;16.20;88.20
11619;DHT22;5865;48.776;9.280;2023-02-21T12:35:17;16.00;87.50
11619;DHT22;5865;48.776;9.280;2023-02-21T12:37:56;15.90;88.00
11619;DHT22;5865;48.776;9.280;2023-02-21T12:40:51;16.10;88.10
11619;DHT22;5865;48.776;9.280;2023-02-21T12:43:48;16.30;90.20
11619;DHT22;5865;48.776;9.280;2023-02-21T12:46:24;16.60;88.60
11619;DHT22;5865;48.776;9.280;2023-02-21T12:49:04;16.50;87.60
11619;DHT22;5865;48.776;9.280;2023-02-21T12:51:36;16.60;87.20
11619;DHT22;5865;48.776;9.280;2023-02-21T12:54:09;16.40;86.30
11619;DHT22;5865;48.776;9.280;2023-02-21T12:56:45;16.40;86.10
11619;DHT22;5865;48.776;9.280;2023-02-21T12:59:48;16.30;86.40
11619;DHT22;5865;48.776;9.280;2023-02-21T13:02:40;16.20;85.90
11619;DHT22;5865;48.776;9.280;2023-02-21T13:05:24;16.20;85.80
11619;DHT22;5865;48.776;9.280;2023-02-21T14:06:29;21.00;62.70
11619;DHT22;5865;48.776;9.280;2023-02-21T15:44:54;22.20;44.80
11619;DHT22;5865;48.776;9.280;2023-02-21T17:05:19;10.70;99.90
11619;DHT22;5865;48.776;9.280;2023-02-21T17:07:48;10.30;99.90
11619;DHT22;5865;48.776;9.280;2023-02-21T17:10:16;10.10;99.90
11619;DHT22;5865;48.776;9.280;2023-02-21T17:12:43;10.10;99.90
11619;DHT22;5865;48.776;9.280;2023-02-21T17:15:10;9.70;99.90
11619;DHT22;5865;48.776;9.280;2023-02-21T17:17:39;9.70;99.90
11619;DHT22;5865;48.776;9.280;2023-02-21T17:20:07;9.40;99.90
11619;DHT22;5865;48.776;9.280;2023-02-21T17:22:34;9.30;99.90
11619;DHT22;5865;48.776;9.280;2023-02-21T17:25:02;9.10;99.90
11619;DHT22;5865;48.776;9.280;2023-02-21T17:27:29;8.90;99.90
11619;DHT22;5865;48.776;9.280;2023-02-21T17:29:56;8.90;99.90
11619;DHT22;5865;48.776;9.280;2023-02-21T17:32:23;8.90;99.90
11619;DHT22;5865;48.776;9.280;2023-02-21T17:34:51;8.70;99.90
11619;DHT22;5865;48.776;9.280;2023-02-21T17:37:18;8.50;99.90
11619;DHT22;5865;48.776;9.280;2023-02-21T17:39:45;8.30;99.90
11619;DHT22;5865;48.776;9.280;2023-02-21T17:42:13;8.20;99.90
11619;DHT22;5865;48.776;9.280;2023-02-21T17:44:42;8.00;99.90
11619;DHT22;5865;48.776;9.280;2023-02-21T17:47:12;8.00;99.90
11619;DHT22;5865;48.776;9.280;2023-02-21T17:49:39;7.80;99.90
11619;DHT22;5865;48.776;9.280;2023-02-21T17:52:06;7.70;99.90
11619;DHT22;5865;48.776;9.280;2023-02-21T17:54:33;7.60;99.90
11619;DHT22;5865;48.776;9.280;2023-02-21T17:57:00;7.50;99.90
11619;DHT22;5865;48.776;9.280;2023-02-21T17:59:30;7.40;99.90
11619;DHT22;5865;48.776;9.280;2023-02-21T18:01:57;7.40;99.90
11619;DHT22;5865;48.776;9.280;2023-02-21T18:04:24;7.30;99.90
11619;DHT22;5865;48.776;9.280;2023-02-21T18:06:51;7.30;99.90
11619;DHT22;5865;48.776;9.280;2023-02-21T18:09:19;7.10;99.90
11619;DHT22;5865;48.776;9.280;2023-02-21T18:11:49;6.90;99.90
11619;DHT22;5865;48.776;9.280;2023-02-21T18:14:17;7.00;99.90
11619;DHT22;5865;48.776;9.280;2023-02-21T18:16:46;6.80;99.90
11619;DHT22;5865;48.776;9.280;2023-02-21T18:19:13;6.70;99.90
11619;DHT22;5865;48.776;9.280;2023-02-21T18:24:08;6.60;99.90
11619;DHT22;5865;48.776;9.280;2023-02-21T18:26:37;6.60;99.90
11619;DHT22;5865;48.776;9.280;2023-02-21T18:29:04;6.40;99.90
11619;DHT22;5865;48.776;9.280;2023-02-21T18:31:32;6.40;99.90
11619;DHT22;5865;48.776;9.280;2023-02-21T18:34:01;6.10;99.90
11619;DHT22;5865;48.776;9.280;2023-02-21T18:36:28;6.30;99.90
11619;DHT22;5865;48.776;9.280;2023-02-21T18:38:55;6.10;99.90
11619;DHT22;5865;48.776;9.280;2023-02-21T18:41:22;6.10;99.90
11619;DHT22;5865;48.776;9.280;2023-02-21T18:43:50;6.10;99.90
11619;DHT22;5865;48.776;9.280;2023-02-21T18:46:19;6.00;99.90
11619;DHT22;5865;48.776;9.280;2023-02-21T18:48:47;5.90;99.90
11619;DHT22;5865;48.776;9.280;2023-02-21T18:51:17;5.80;99.90
11619;DHT22;5865;48.776;9.280;2023-02-21T18:53:45;5.90;99.90
11619;DHT22;5865;48.776;9.280;2023-02-21T18:56:14;5.80;99.90
11619;DHT22;5865;48.776;9.280;2023-02-21T18:58:43;5.80;99.90
11619;DHT22;5865;48.776;9.280;2023-02-21T19:01:12;5.70;99.90
11619;DHT22;5865;48.776;9.280;2023-02-21T19:08:36;5.60;99.90
11619;DHT22;5865;48.776;9.280;2023-02-21T19:11:03;5.40;99.90
11619;DHT22;5865;48.776;9.280;2023-02-21T19:13:30;5.30;99.90
11619;DHT22;5865;48.776;9.280;2023-02-21T19:15:57;5.30;99.90
11619;DHT22;5865;48.776;9.280;2023-02-21T19:18:25;5.40;99.90
11619;DHT22;5865;48.776;9.280;2023-02-21T19:23:19;5.40;99.90
11619;DHT22;5865;48.776;9.280;2023-02-21T19:25:47;5.40;99.90
11619;DHT22;5865;48.776;9.280;2023-02-21T19:28:14;5.20;99.90
